sensor_id;sensor_type;location;lat;lon;timestamp;temperature;humidity
16521;DHT22;8373;48.110;11.522;2023-07-09T00:00:38;24.30;60.70
16521;DHT22;8373;48.110;11.522;2023-07-09T00:03:06;23.90;60.80
16521;DHT22;8373;48.110;11.522;2023-07-09T00:05:33;23.70;61.60
16521;DHT22;8373;48.110;11.522;2023-07-09T00:08:00;23.80;61.80
16521;DHT22;8373;48.110;11.522;2023-07-09T00:10:29;23.80;61.80
16521;DHT22;8373;48.110;11.522;2023-07-09T00:12:56;23.80;62.10
16521;DHT22;8373;48.110;11.522;2023-07-09T00:15:26;23.90;62.00
16521;DHT22;8373;48.110;11.522;2023-07-09T00:17:53;24.00;61.90
16521;DHT22;8373;48.110;11.522;2023-07-09T00:20:21;24.00;61.90
16521;DHT22;8373;48.110;11.522;2023-07-09T00:22:48;24.00;61.70
16521;DHT22;8373;48.110;11.522;2023-07-09T00:25:18;24.10;62.70
16521;DHT22;8373;48.110;11.522;2023-07-09T00:27:47;24.00;62.00
16521;DHT22;8373;48.110;11.522;2023-07-09T00:30:20;24.00;62.00
16521;DHT22;8373;48.110;11.522;2023-07-09T00:32:56;24.00;62.10
16521;DHT22;8373;48.110;11.522;2023-07-09T00:35:24;24.00;62.30
16521;DHT22;8373;48.110;11.522;2023-07-09T00:37:51;24.10;62.30
16521;DHT22;8373;48.110;11.522;2023-07-09T00:40:21;24.10;62.50
16521;DHT22;8373;48.110;11.522;2023-07-09T00:42:54;24.00;62.50
16521;DHT22;8373;48.110;11.522;2023-07-09T00:45:24;24.00;62.60
16521;DHT22;8373;48.110;11.522;2023-07-09T00:47:56;24.00;62.70
16521;DHT22;8373;48.110;11.522;2023-07-09T00:50:34;24.00;62.70
16521;DHT22;8373;48.110;11.522;2023-07-09T00:53:08;24.00;62.70
16521;DHT22;8373;48.110;11.522;2023-07-09T00:55:40;23.90;62.80
16521;DHT22;8373;48.110;11.522;2023-07-09T00:58:13;23.80;63.00
16521;DHT22;8373;48.110;11.522;2023-07-09T01:00:44;23.60;63.20
16521;DHT22;8373;48.110;11.522;2023-07-09T01:03:20;23.60;63.60
16521;DHT22;8373;48.110;11.522;2023-07-09T01:05:49;23.60;64.60
16521;DHT22;8373;48.110;11.522;2023-07-09T01:08:18;23.70;63.90
16521;DHT22;8373;48.110;11.522;2023-07-09T01:10:46;23.70;63.90
16521;DHT22;8373;48.110;11.522;2023-07-09T01:13:15;23.70;63.70
16521;DHT22;8373;48.110;11.522;2023-07-09T01:15:43;23.70;63.90
16521;DHT22;8373;48.110;11.522;2023-07-09T01:18:12;23.70;63.90
16521;DHT22;8373;48.110;11.522;2023-07-09T01:20:40;23.70;63.90
16521;DHT22;8373;48.110;11.522;2023-07-09T01:23:10;23.70;63.90
16521;DHT22;8373;48.110;11.522;2023-07-09T01:25:43;23.50;63.70
16521;DHT22;8373;48.110;11.522;2023-07-09T01:28:12;23.40;64.00
16521;DHT22;8373;48.110;11.522;2023-07-09T01:30:42;23.30;64.20
16521;DHT22;8373;48.110;11.522;2023-07-09T01:33:09;23.30;64.30
16521;DHT22;8373;48.110;11.522;2023-07-09T01:35:38;23.40;64.50
16521;DHT22;8373;48.110;11.522;2023-07-09T01:38:09;23.40;64.40
16521;DHT22;8373;48.110;11.522;2023-07-09T01:40:37;23.40;64.30
16521;DHT22;8373;48.110;11.522;2023-07-09T01:43:05;23.40;64.40
16521;DHT22;8373;48.110;11.522;2023-07-09T01:45:34;23.40;64.40
16521;DHT22;8373;48.110;11.522;2023-07-09T01:48:03;23.40;64.40
16521;DHT22;8373;48.110;11.522;2023-07-09T01:50:30;23.40;65.00
16521;DHT22;8373;48.110;11.522;2023-07-09T01:52:58;23.50;64.60
16521;DHT22;8373;48.110;11.522;2023-07-09T01:55:28;23.50;64.50
16521;DHT22;8373;48.110;11.522;2023-07-09T01:57:55;23.40;64.50
16521;DHT22;8373;48.110;11.522;2023-07-09T02:00:22;23.30;64.60
16521;DHT22;8373;48.110;11.522;2023-07-09T02:02:50;23.30;64.80
16521;DHT22;8373;48.110;11.522;2023-07-09T02:05:20;23.20;65.10
16521;DHT22;8373;48.110;11.522;2023-07-09T02:07:48;23.20;65.20
16521;DHT22;8373;48.110;11.522;2023-07-09T02:10:17;23.20;65.30
16521;DHT22;8373;48.110;11.522;2023-07-09T02:12:49;23.20;65.40
16521;DHT22;8373;48.110;11.522;2023-07-09T02:15:17;23.20;65.40
16521;DHT22;8373;48.110;11.522;2023-07-09T02:17:44;23.20;65.40
16521;DHT22;8373;48.110;11.522;2023-07-09T02:20:13;23.20;65.50
16521;DHT22;8373;48.110;11.522;2023-07-09T02:22:42;23.20;65.70
16521;DHT22;8373;48.110;11.522;2023-07-09T02:25:12;23.10;65.60
16521;DHT22;8373;48.110;11.522;2023-07-09T02:27:40;23.20;65.70
16521;DHT22;8373;48.110;11.522;2023-07-09T02:30:10;22.80;66.10
16521;DHT22;8373;48.110;11.522;2023-07-09T02:32:37;22.90;66.60
16521;DHT22;8373;48.110;11.522;2023-07-09T02:35:05;23.00;66.40
16521;DHT22;8373;48.110;11.522;2023-07-09T02:37:33;23.10;65.90
16521;DHT22;8373;48.110;11.522;2023-07-09T02:40:01;23.00;65.90
16521;DHT22;8373;48.110;11.522;2023-07-09T02:42:29;22.70;66.60
16521;DHT22;8373;48.110;11.522;2023-07-09T02:44:56;22.50;67.30
16521;DHT22;8373;48.110;11.522;2023-07-09T02:47:25;22.50;67.60
16521;DHT22;8373;48.110;11.522;2023-07-09T02:49:53;22.60;67.80
16521;DHT22;8373;48.110;11.522;2023-07-09T02:52:20;22.70;67.40
16521;DHT22;8373;48.110;11.522;2023-07-09T02:54:47;22.80;67.20
16521;DHT22;8373;48.110;11.522;2023-07-09T02:57:16;22.80;67.00
16521;DHT22;8373;48.110;11.522;2023-07-09T02:59:43;22.90;66.90
16521;DHT22;8373;48.110;11.522;2023-07-09T03:02:11;22.60;66.90
16521;DHT22;8373;48.110;11.522;2023-07-09T03:04:40;22.50;67.50
16521;DHT22;8373;48.110;11.522;2023-07-09T03:07:07;22.70;67.50
16521;DHT22;8373;48.110;11.522;2023-07-09T03:09:35;22.60;67.50
16521;DHT22;8373;48.110;11.522;2023-07-09T03:12:02;22.70;67.50
16521;DHT22;8373;48.110;11.522;2023-07-09T03:14:29;22.40;67.80
16521;DHT22;8373;48.110;11.522;2023-07-09T03:16:56;22.60;67.90
16521;DHT22;8373;48.110;11.522;2023-07-09T03:19:24;22.60;67.80
16521;DHT22;8373;48.110;11.522;2023-07-09T03:21:53;22.70;67.50
16521;DHT22;8373;48.110;11.522;2023-07-09T03:24:21;22.70;67.50
16521;DHT22;8373;48.110;11.522;2023-07-09T03:26:48;22.80;67.10
16521;DHT22;8373;48.110;11.522;2023-07-09T03:29:15;22.80;66.90
16521;DHT22;8373;48.110;11.522;2023-07-09T03:31:42;22.80;66.90
16521;DHT22;8373;48.110;11.522;2023-07-09T03:34:09;22.70;66.80
16521;DHT22;8373;48.110;11.522;2023-07-09T03:36:37;22.70;67.10
16521;DHT22;8373;48.110;11.522;2023-07-09T03:39:06;22.70;67.00
16521;DHT22;8373;48.110;11.522;2023-07-09T03:41:34;22.60;66.90
16521;DHT22;8373;48.110;11.522;2023-07-09T03:44:01;22.70;67.20
16521;DHT22;8373;48.110;11.522;2023-07-09T03:46:28;22.70;67.20
16521;DHT22;8373;48.110;11.522;2023-07-09T03:48:57;22.60;66.90
16521;DHT22;8373;48.110;11.522;2023-07-09T03:51:25;22.30;68.00
16521;DHT22;8373;48.110;11.522;2023-07-09T03:53:52;22.60;68.00
16521;DHT22;8373;48.110;11.522;2023-07-09T03:56:20;22.60;67.60
16521;DHT22;8373;48.110;11.522;2023-07-09T03:58:47;22.60;67.50
16521;DHT22;8373;48.110;11.522;2023-07-09T04:01:15;22.70;67.60
16521;DHT22;8373;48.110;11.522;2023-07-09T04:03:43;22.70;67.20
16521;DHT22;8373;48.110;11.522;2023-07-09T04:06:11;22.50;67.00
16521;DHT22;8373;48.110;11.522;2023-07-09T04:08:39;22.50;67.40
16521;DHT22;8373;48.110;11.522;2023-07-09T04:11:09;22.70;67.20
16521;DHT22;8373;48.110;11.522;2023-07-09T04:13:39;22.70;67.60
16521;DHT22;8373;48.110;11.522;2023-07-09T04:16:07;22.70;67.00
16521;DHT22;8373;48.110;11.522;2023-07-09T04:18:35;22.70;66.90
16521;DHT22;8373;48.110;11.522;2023-07-09T04:21:04;22.70;67.10
16521;DHT22;8373;48.110;11.522;2023-07-09T04:23:34;22.70;66.70
16521;DHT22;8373;48.110;11.522;2023-07-09T04:26:04;22.50;66.90
16521;DHT22;8373;48.110;11.522;2023-07-09T04:28:35;22.30;67.80
16521;DHT22;8373;48.110;11.522;2023-07-09T04:31:08;22.20;67.90
16521;DHT22;8373;48.110;11.522;2023-07-09T04:33:38;22.20;68.40
16521;DHT22;8373;48.110;11.522;2023-07-09T04:36:09;22.40;68.20
16521;DHT22;8373;48.110;11.522;2023-07-09T04:38:39;22.50;67.80
16521;DHT22;8373;48.110;11.522;2023-07-09T04:41:09;22.70;67.30
16521;DHT22;8373;48.110;11.522;2023-07-09T04:43:36;22.70;67.10
16521;DHT22;8373;48.110;11.522;2023-07-09T04:46:03;22.40;67.10
16521;DHT22;8373;48.110;11.522;2023-07-09T04:48:32;22.40;67.90
16521;DHT22;8373;48.110;11.522;2023-07-09T04:51:00;22.60;67.60
16521;DHT22;8373;48.110;11.522;2023-07-09T04:53:28;22.70;67.20
16521;DHT22;8373;48.110;11.522;2023-07-09T04:55:57;22.10;67.90
16521;DHT22;8373;48.110;11.522;2023-07-09T04:58:25;21.90;69.00
16521;DHT22;8373;48.110;11.522;2023-07-09T05:00:58;21.90;68.60
16521;DHT22;8373;48.110;11.522;2023-07-09T05:03:28;22.00;69.10
16521;DHT22;8373;48.110;11.522;2023-07-09T05:06:00;22.00;69.00
16521;DHT22;8373;48.110;11.522;2023-07-09T05:08:31;22.20;69.20
16521;DHT22;8373;48.110;11.522;2023-07-09T05:11:03;22.40;68.50
16521;DHT22;8373;48.110;11.522;2023-07-09T05:13:37;22.40;68.00
16521;DHT22;8373;48.110;11.522;2023-07-09T05:16:12;22.60;68.30
16521;DHT22;8373;48.110;11.522;2023-07-09T05:18:44;22.70;67.50
16521;DHT22;8373;48.110;11.522;2023-07-09T05:21:27;22.70;67.40
16521;DHT22;8373;48.110;11.522;2023-07-09T05:24:06;22.70;66.80
16521;DHT22;8373;48.110;11.522;2023-07-09T05:26:40;22.70;67.10
16521;DHT22;8373;48.110;11.522;2023-07-09T05:29:08;23.00;66.80
16521;DHT22;8373;48.110;11.522;2023-07-09T05:31:35;22.90;66.60
16521;DHT22;8373;48.110;11.522;2023-07-09T05:34:03;22.90;66.60
16521;DHT22;8373;48.110;11.522;2023-07-09T05:36:31;23.00;66.60
16521;DHT22;8373;48.110;11.522;2023-07-09T05:38:58;22.90;66.40
16521;DHT22;8373;48.110;11.522;2023-07-09T05:41:25;23.10;66.20
16521;DHT22;8373;48.110;11.522;2023-07-09T05:43:53;23.20;66.10
16521;DHT22;8373;48.110;11.522;2023-07-09T05:46:22;23.30;65.80
16521;DHT22;8373;48.110;11.522;2023-07-09T05:48:49;23.50;65.40
16521;DHT22;8373;48.110;11.522;2023-07-09T05:51:17;23.60;65.20
16521;DHT22;8373;48.110;11.522;2023-07-09T05:53:45;23.80;65.20
16521;DHT22;8373;48.110;11.522;2023-07-09T05:56:12;23.70;64.40
16521;DHT22;8373;48.110;11.522;2023-07-09T05:58:40;23.70;64.50
16521;DHT22;8373;48.110;11.522;2023-07-09T06:01:07;23.80;64.00
16521;DHT22;8373;48.110;11.522;2023-07-09T06:03:34;23.80;64.00
16521;DHT22;8373;48.110;11.522;2023-07-09T06:06:02;24.00;64.20
16521;DHT22;8373;48.110;11.522;2023-07-09T06:08:29;24.20;63.60
16521;DHT22;8373;48.110;11.522;2023-07-09T06:11:02;24.30;63.50
16521;DHT22;8373;48.110;11.522;2023-07-09T06:13:30;24.40;63.10
16521;DHT22;8373;48.110;11.522;2023-07-09T06:15:58;24.50;62.50
16521;DHT22;8373;48.110;11.522;2023-07-09T06:18:27;24.70;62.10
16521;DHT22;8373;48.110;11.522;2023-07-09T06:20:57;24.80;61.70
16521;DHT22;8373;48.110;11.522;2023-07-09T06:23:24;24.90;61.60
16521;DHT22;8373;48.110;11.522;2023-07-09T06:25:52;25.00;59.80
16521;DHT22;8373;48.110;11.522;2023-07-09T06:28:22;25.20;59.60
16521;DHT22;8373;48.110;11.522;2023-07-09T06:30:50;25.40;58.60
16521;DHT22;8373;48.110;11.522;2023-07-09T06:33:19;25.50;58.30
16521;DHT22;8373;48.110;11.522;2023-07-09T06:35:47;25.80;58.30
16521;DHT22;8373;48.110;11.522;2023-07-09T06:38:15;26.00;58.00
16521;DHT22;8373;48.110;11.522;2023-07-09T06:40:42;25.90;56.50
16521;DHT22;8373;48.110;11.522;2023-07-09T06:43:10;26.10;56.40
16521;DHT22;8373;48.110;11.522;2023-07-09T06:45:39;26.30;56.20
16521;DHT22;8373;48.110;11.522;2023-07-09T06:48:06;26.60;56.70
16521;DHT22;8373;48.110;11.522;2023-07-09T06:50:34;26.60;55.50
16521;DHT22;8373;48.110;11.522;2023-07-09T06:53:01;26.70;55.20
16521;DHT22;8373;48.110;11.522;2023-07-09T06:55:29;27.10;54.90
16521;DHT22;8373;48.110;11.522;2023-07-09T06:57:57;27.20;54.30
16521;DHT22;8373;48.110;11.522;2023-07-09T07:00:24;27.40;55.10
16521;DHT22;8373;48.110;11.522;2023-07-09T07:02:57;27.60;54.20
16521;DHT22;8373;48.110;11.522;2023-07-09T07:05:29;27.70;53.40
16521;DHT22;8373;48.110;11.522;2023-07-09T07:08:06;27.50;51.50
16521;DHT22;8373;48.110;11.522;2023-07-09T07:10:39;27.80;51.90
16521;DHT22;8373;48.110;11.522;2023-07-09T07:13:08;27.60;52.30
16521;DHT22;8373;48.110;11.522;2023-07-09T07:15:37;27.80;52.10
16521;DHT22;8373;48.110;11.522;2023-07-09T07:18:06;28.00;51.50
16521;DHT22;8373;48.110;11.522;2023-07-09T07:20:34;28.10;51.70
16521;DHT22;8373;48.110;11.522;2023-07-09T07:23:02;28.00;51.40
16521;DHT22;8373;48.110;11.522;2023-07-09T07:25:31;28.20;51.50
16521;DHT22;8373;48.110;11.522;2023-07-09T07:27:58;28.10;51.00
16521;DHT22;8373;48.110;11.522;2023-07-09T07:30:26;28.20;51.50
16521;DHT22;8373;48.110;11.522;2023-07-09T07:32:53;28.40;51.10
16521;DHT22;8373;48.110;11.522;2023-07-09T07:35:22;28.40;50.20
16521;DHT22;8373;48.110;11.522;2023-07-09T07:37:49;28.40;50.40
16521;DHT22;8373;48.110;11.522;2023-07-09T07:40:17;28.50;50.60
16521;DHT22;8373;48.110;11.522;2023-07-09T07:42:44;28.70;49.90
16521;DHT22;8373;48.110;11.522;2023-07-09T07:45:12;28.70;49.50
16521;DHT22;8373;48.110;11.522;2023-07-09T07:47:47;28.90;49.30
16521;DHT22;8373;48.110;11.522;2023-07-09T07:50:37;29.10;48.20
16521;DHT22;8373;48.110;11.522;2023-07-09T07:53:35;29.20;47.80
16521;DHT22;8373;48.110;11.522;2023-07-09T07:56:09;29.30;48.90
16521;DHT22;8373;48.110;11.522;2023-07-09T07:58:52;29.40;47.50
16521;DHT22;8373;48.110;11.522;2023-07-09T08:01:20;29.50;46.80
16521;DHT22;8373;48.110;11.522;2023-07-09T08:03:48;29.70;46.40
16521;DHT22;8373;48.110;11.522;2023-07-09T08:06:16;29.80;47.50
16521;DHT22;8373;48.110;11.522;2023-07-09T08:08:44;29.70;47.00
16521;DHT22;8373;48.110;11.522;2023-07-09T08:11:11;29.90;46.20
16521;DHT22;8373;48.110;11.522;2023-07-09T08:13:39;30.10;44.80
16521;DHT22;8373;48.110;11.522;2023-07-09T08:16:07;30.20;44.60
16521;DHT22;8373;48.110;11.522;2023-07-09T08:18:37;30.30;44.30
16521;DHT22;8373;48.110;11.522;2023-07-09T08:21:04;30.40;45.40
16521;DHT22;8373;48.110;11.522;2023-07-09T08:23:33;30.60;44.20
16521;DHT22;8373;48.110;11.522;2023-07-09T08:26:02;30.70;44.60
16521;DHT22;8373;48.110;11.522;2023-07-09T08:28:31;30.70;43.40
16521;DHT22;8373;48.110;11.522;2023-07-09T08:30:58;30.80;42.50
16521;DHT22;8373;48.110;11.522;2023-07-09T08:33:26;30.60;42.20
16521;DHT22;8373;48.110;11.522;2023-07-09T08:35:54;30.60;42.00
16521;DHT22;8373;48.110;11.522;2023-07-09T08:38:22;30.80;42.50
16521;DHT22;8373;48.110;11.522;2023-07-09T08:40:55;30.60;43.60
16521;DHT22;8373;48.110;11.522;2023-07-09T08:43:36;30.50;43.30
16521;DHT22;8373;48.110;11.522;2023-07-09T08:46:14;30.80;43.20
16521;DHT22;8373;48.110;11.522;2023-07-09T08:48:46;30.90;43.20
16521;DHT22;8373;48.110;11.522;2023-07-09T08:51:19;31.10;42.90
16521;DHT22;8373;48.110;11.522;2023-07-09T08:53:51;31.10;39.60
16521;DHT22;8373;48.110;11.522;2023-07-09T08:56:22;31.20;38.20
16521;DHT22;8373;48.110;11.522;2023-07-09T08:58:51;31.20;37.80
16521;DHT22;8373;48.110;11.522;2023-07-09T09:01:22;31.20;37.70
16521;DHT22;8373;48.110;11.522;2023-07-09T09:03:52;31.20;37.20
16521;DHT22;8373;48.110;11.522;2023-07-09T09:06:22;31.10;38.00
16521;DHT22;8373;48.110;11.522;2023-07-09T09:09:02;31.20;38.10
16521;DHT22;8373;48.110;11.522;2023-07-09T09:11:42;30.90;37.90
16521;DHT22;8373;48.110;11.522;2023-07-09T09:14:23;30.70;38.80
16521;DHT22;8373;48.110;11.522;2023-07-09T09:16:54;30.60;39.00
16521;DHT22;8373;48.110;11.522;2023-07-09T09:19:27;30.30;38.70
16521;DHT22;8373;48.110;11.522;2023-07-09T09:22:05;30.20;39.40
16521;DHT22;8373;48.110;11.522;2023-07-09T09:25:05;30.30;40.10
16521;DHT22;8373;48.110;11.522;2023-07-09T09:27:46;30.50;39.90
16521;DHT22;8373;48.110;11.522;2023-07-09T09:30:16;30.40;39.90
16521;DHT22;8373;48.110;11.522;2023-07-09T09:32:45;30.20;38.60
16521;DHT22;8373;48.110;11.522;2023-07-09T09:35:16;30.40;39.00
16521;DHT22;8373;48.110;11.522;2023-07-09T09:37:50;30.60;39.30
16521;DHT22;8373;48.110;11.522;2023-07-09T09:40:19;30.70;39.40
16521;DHT22;8373;48.110;11.522;2023-07-09T09:42:54;30.60;39.30
16521;DHT22;8373;48.110;11.522;2023-07-09T09:45:28;30.90;40.10
16521;DHT22;8373;48.110;11.522;2023-07-09T09:47:59;31.00;40.10
16521;DHT22;8373;48.110;11.522;2023-07-09T09:50:32;31.10;40.10
16521;DHT22;8373;48.110;11.522;2023-07-09T09:53:01;31.20;40.20
16521;DHT22;8373;48.110;11.522;2023-07-09T09:55:30;31.20;40.60
16521;DHT22;8373;48.110;11.522;2023-07-09T09:58:13;31.40;39.90
16521;DHT22;8373;48.110;11.522;2023-07-09T10:00:49;31.30;39.60
16521;DHT22;8373;48.110;11.522;2023-07-09T10:03:20;31.40;39.90
16521;DHT22;8373;48.110;11.522;2023-07-09T10:05:53;31.40;39.70
16521;DHT22;8373;48.110;11.522;2023-07-09T10:08:29;31.50;37.50
16521;DHT22;8373;48.110;11.522;2023-07-09T10:11:08;31.60;37.40
16521;DHT22;8373;48.110;11.522;2023-07-09T10:13:44;31.60;37.30
16521;DHT22;8373;48.110;11.522;2023-07-09T10:16:21;31.60;38.70
16521;DHT22;8373;48.110;11.522;2023-07-09T10:19:02;31.60;37.50
16521;DHT22;8373;48.110;11.522;2023-07-09T10:21:34;31.70;36.10
16521;DHT22;8373;48.110;11.522;2023-07-09T10:24:15;31.70;36.70
16521;DHT22;8373;48.110;11.522;2023-07-09T10:26:53;31.60;36.60
16521;DHT22;8373;48.110;11.522;2023-07-09T10:29:39;31.50;36.90
16521;DHT22;8373;48.110;11.522;2023-07-09T10:32:20;31.70;36.10
16521;DHT22;8373;48.110;11.522;2023-07-09T10:34:55;31.70;36.20
16521;DHT22;8373;48.110;11.522;2023-07-09T10:37:40;31.80;36.30
16521;DHT22;8373;48.110;11.522;2023-07-09T10:40:14;31.80;36.80
16521;DHT22;8373;48.110;11.522;2023-07-09T10:42:46;31.90;36.90
16521;DHT22;8373;48.110;11.522;2023-07-09T10:45:22;32.00;35.50
16521;DHT22;8373;48.110;11.522;2023-07-09T10:47:56;32.00;35.60
16521;DHT22;8373;48.110;11.522;2023-07-09T10:50:29;32.10;35.50
16521;DHT22;8373;48.110;11.522;2023-07-09T10:53:04;32.10;35.60
16521;DHT22;8373;48.110;11.522;2023-07-09T10:55:40;31.80;35.80
16521;DHT22;8373;48.110;11.522;2023-07-09T10:58:27;31.70;39.20
16521;DHT22;8373;48.110;11.522;2023-07-09T11:00:59;31.70;38.30
16521;DHT22;8373;48.110;11.522;2023-07-09T11:03:37;31.80;37.40
16521;DHT22;8373;48.110;11.522;2023-07-09T11:06:14;32.00;36.60
16521;DHT22;8373;48.110;11.522;2023-07-09T11:08:42;31.90;36.20
16521;DHT22;8373;48.110;11.522;2023-07-09T11:11:20;32.00;36.40
16521;DHT22;8373;48.110;11.522;2023-07-09T11:13:56;31.90;36.60
16521;DHT22;8373;48.110;11.522;2023-07-09T11:16:31;31.90;37.00
16521;DHT22;8373;48.110;11.522;2023-07-09T11:19:02;31.90;37.20
16521;DHT22;8373;48.110;11.522;2023-07-09T11:21:31;31.90;37.00
16521;DHT22;8373;48.110;11.522;2023-07-09T11:24:01;31.90;37.10
16521;DHT22;8373;48.110;11.522;2023-07-09T11:26:30;32.10;37.20
16521;DHT22;8373;48.110;11.522;2023-07-09T11:29:13;31.90;36.90
16521;DHT22;8373;48.110;11.522;2023-07-09T11:31:45;32.00;37.10
16521;DHT22;8373;48.110;11.522;2023-07-09T11:34:20;32.20;36.90
16521;DHT22;8373;48.110;11.522;2023-07-09T11:37:00;32.20;35.20
16521;DHT22;8373;48.110;11.522;2023-07-09T11:39:41;32.20;35.70
16521;DHT22;8373;48.110;11.522;2023-07-09T11:42:27;32.30;35.50
16521;DHT22;8373;48.110;11.522;2023-07-09T11:45:11;32.30;35.70
16521;DHT22;8373;48.110;11.522;2023-07-09T11:47:59;32.50;35.40
16521;DHT22;8373;48.110;11.522;2023-07-09T11:50:39;32.50;34.80
16521;DHT22;8373;48.110;11.522;2023-07-09T11:53:24;32.50;35.00
16521;DHT22;8373;48.110;11.522;2023-07-09T11:55:56;32.60;35.10
16521;DHT22;8373;48.110;11.522;2023-07-09T11:58:28;32.60;35.00
16521;DHT22;8373;48.110;11.522;2023-07-09T12:00:59;32.70;34.30
16521;DHT22;8373;48.110;11.522;2023-07-09T12:03:35;32.70;34.40
16521;DHT22;8373;48.110;11.522;2023-07-09T12:06:16;32.90;34.00
16521;DHT22;8373;48.110;11.522;2023-07-09T12:08:47;32.90;34.50
16521;DHT22;8373;48.110;11.522;2023-07-09T12:11:23;32.90;36.40
16521;DHT22;8373;48.110;11.522;2023-07-09T12:14:00;33.00;34.60
16521;DHT22;8373;48.110;11.522;2023-07-09T12:16:35;33.20;34.20
16521;DHT22;8373;48.110;11.522;2023-07-09T12:19:07;33.10;34.20
16521;DHT22;8373;48.110;11.522;2023-07-09T12:21:42;33.20;34.20
16521;DHT22;8373;48.110;11.522;2023-07-09T12:24:19;33.40;34.10
16521;DHT22;8373;48.110;11.522;2023-07-09T12:26:51;33.60;32.90
16521;DHT22;8373;48.110;11.522;2023-07-09T12:29:23;33.70;32.90
16521;DHT22;8373;48.110;11.522;2023-07-09T12:31:52;33.60;34.10
16521;DHT22;8373;48.110;11.522;2023-07-09T12:34:25;33.40;35.60
16521;DHT22;8373;48.110;11.522;2023-07-09T12:36:54;33.40;34.80
16521;DHT22;8373;48.110;11.522;2023-07-09T12:39:24;33.20;34.60
16521;DHT22;8373;48.110;11.522;2023-07-09T12:41:56;33.10;35.50
16521;DHT22;8373;48.110;11.522;2023-07-09T12:44:25;33.00;35.10
16521;DHT22;8373;48.110;11.522;2023-07-09T12:46:54;33.00;34.50
16521;DHT22;8373;48.110;11.522;2023-07-09T12:49:26;32.90;34.50
16521;DHT22;8373;48.110;11.522;2023-07-09T12:51:55;33.20;34.60
16521;DHT22;8373;48.110;11.522;2023-07-09T12:54:27;33.40;34.10
16521;DHT22;8373;48.110;11.522;2023-07-09T12:56:58;33.40;34.40
16521;DHT22;8373;48.110;11.522;2023-07-09T12:59:39;33.20;33.00
16521;DHT22;8373;48.110;11.522;2023-07-09T13:02:15;33.40;34.30
16521;DHT22;8373;48.110;11.522;2023-07-09T13:04:45;33.40;34.50
16521;DHT22;8373;48.110;11.522;2023-07-09T13:07:34;33.20;34.10
16521;DHT22;8373;48.110;11.522;2023-07-09T13:10:22;33.30;34.30
16521;DHT22;8373;48.110;11.522;2023-07-09T13:13:24;33.50;34.00
16521;DHT22;8373;48.110;11.522;2023-07-09T13:15:56;33.60;32.30
16521;DHT22;8373;48.110;11.522;2023-07-09T13:18:26;33.30;34.40
16521;DHT22;8373;48.110;11.522;2023-07-09T13:20:58;33.40;34.20
16521;DHT22;8373;48.110;11.522;2023-07-09T13:23:28;33.60;34.00
16521;DHT22;8373;48.110;11.522;2023-07-09T13:25:56;33.70;34.20
16521;DHT22;8373;48.110;11.522;2023-07-09T13:28:26;33.90;34.20
16521;DHT22;8373;48.110;11.522;2023-07-09T13:30:57;34.00;34.10
16521;DHT22;8373;48.110;11.522;2023-07-09T13:33:24;33.90;33.60
16521;DHT22;8373;48.110;11.522;2023-07-09T13:35:52;33.80;33.50
16521;DHT22;8373;48.110;11.522;2023-07-09T13:38:23;33.70;33.20
16521;DHT22;8373;48.110;11.522;2023-07-09T13:40:53;33.80;32.30
16521;DHT22;8373;48.110;11.522;2023-07-09T13:43:26;33.90;33.20
16521;DHT22;8373;48.110;11.522;2023-07-09T13:45:55;33.90;33.40
16521;DHT22;8373;48.110;11.522;2023-07-09T13:48:23;34.00;33.00
16521;DHT22;8373;48.110;11.522;2023-07-09T13:50:53;34.00;33.00
16521;DHT22;8373;48.110;11.522;2023-07-09T13:53:24;34.10;31.80
16521;DHT22;8373;48.110;11.522;2023-07-09T13:55:58;34.10;31.60
16521;DHT22;8373;48.110;11.522;2023-07-09T13:58:27;34.10;31.40
16521;DHT22;8373;48.110;11.522;2023-07-09T14:00:57;34.10;32.00
16521;DHT22;8373;48.110;11.522;2023-07-09T14:03:32;34.00;32.50
16521;DHT22;8373;48.110;11.522;2023-07-09T14:06:00;34.10;31.70
16521;DHT22;8373;48.110;11.522;2023-07-09T14:08:30;34.20;30.80
16521;DHT22;8373;48.110;11.522;2023-07-09T14:10:57;34.00;31.50
16521;DHT22;8373;48.110;11.522;2023-07-09T14:13:25;33.90;31.50
16521;DHT22;8373;48.110;11.522;2023-07-09T14:15:52;33.70;31.30
16521;DHT22;8373;48.110;11.522;2023-07-09T14:18:21;33.50;31.80
16521;DHT22;8373;48.110;11.522;2023-07-09T14:20:50;33.10;32.70
16521;DHT22;8373;48.110;11.522;2023-07-09T14:23:18;33.30;32.90
16521;DHT22;8373;48.110;11.522;2023-07-09T14:25:48;33.40;33.00
16521;DHT22;8373;48.110;11.522;2023-07-09T14:28:17;33.50;33.40
16521;DHT22;8373;48.110;11.522;2023-07-09T14:30:45;33.50;33.90
16521;DHT22;8373;48.110;11.522;2023-07-09T14:33:14;33.60;33.70
16521;DHT22;8373;48.110;11.522;2023-07-09T14:35:43;33.70;33.30
16521;DHT22;8373;48.110;11.522;2023-07-09T14:38:16;33.70;33.40
16521;DHT22;8373;48.110;11.522;2023-07-09T14:40:46;33.70;32.10
16521;DHT22;8373;48.110;11.522;2023-07-09T14:43:14;33.60;31.90
16521;DHT22;8373;48.110;11.522;2023-07-09T14:45:42;33.60;32.70
16521;DHT22;8373;48.110;11.522;2023-07-09T14:48:11;33.60;32.30
16521;DHT22;8373;48.110;11.522;2023-07-09T14:50:39;33.50;31.80
16521;DHT22;8373;48.110;11.522;2023-07-09T14:53:13;33.50;32.00
16521;DHT22;8373;48.110;11.522;2023-07-09T14:55:42;33.40;31.50
16521;DHT22;8373;48.110;11.522;2023-07-09T14:58:17;33.40;32.10
16521;DHT22;8373;48.110;11.522;2023-07-09T15:00:45;33.40;31.70
16521;DHT22;8373;48.110;11.522;2023-07-09T15:03:18;33.40;31.90
16521;DHT22;8373;48.110;11.522;2023-07-09T15:05:46;33.30;32.50
16521;DHT22;8373;48.110;11.522;2023-07-09T15:08:16;33.10;32.60
16521;DHT22;8373;48.110;11.522;2023-07-09T15:10:44;33.20;33.60
16521;DHT22;8373;48.110;11.522;2023-07-09T15:13:17;33.20;33.80
16521;DHT22;8373;48.110;11.522;2023-07-09T15:15:46;33.30;33.30
16521;DHT22;8373;48.110;11.522;2023-07-09T15:18:15;33.40;32.90
16521;DHT22;8373;48.110;11.522;2023-07-09T15:20:48;33.40;33.60
16521;DHT22;8373;48.110;11.522;2023-07-09T15:23:16;33.40;33.30
16521;DHT22;8373;48.110;11.522;2023-07-09T15:25:44;33.30;33.70
16521;DHT22;8373;48.110;11.522;2023-07-09T15:28:11;33.30;33.20
16521;DHT22;8373;48.110;11.522;2023-07-09T15:30:41;33.30;33.40
16521;DHT22;8373;48.110;11.522;2023-07-09T15:33:14;33.40;33.00
16521;DHT22;8373;48.110;11.522;2023-07-09T15:35:44;33.30;32.90
16521;DHT22;8373;48.110;11.522;2023-07-09T15:38:26;33.30;32.90
16521;DHT22;8373;48.110;11.522;2023-07-09T15:40:54;33.30;32.40
16521;DHT22;8373;48.110;11.522;2023-07-09T15:43:23;33.20;32.00
16521;DHT22;8373;48.110;11.522;2023-07-09T15:45:55;33.10;32.50
16521;DHT22;8373;48.110;11.522;2023-07-09T15:48:26;33.10;32.90
16521;DHT22;8373;48.110;11.522;2023-07-09T15:50:55;33.00;33.00
16521;DHT22;8373;48.110;11.522;2023-07-09T15:53:24;33.00;33.50